Time;durP1;ratioP1;P1;durP2;ratioP2;P2;SDS_P1;SDS_P2;PMS_P1;PMS_P2;Temp;Humidity;BMP_temperature;BMP_pressure;BME280_temperature;BME280_humidity;BME280_pressure;Samples;Min_cycle;Max_cycle;Signal;HPM_P1;HPM_P2
2022/12/01 00:02:14;;;;;;;3.28;1.27;;;5.20;99.90;;;;;;5044024;28;20051;-89
2022/12/01 00:04:48;;;;;;;7.07;2.70;;;4.20;99.90;;;;;;5029000;28;20045;-89
2022/12/01 00:07:27;;;;;;;7.60;1.55;;;5.80;99.90;;;;;;5044770;28;20513;-90
2022/12/01 00:12:47;;;;;;;6.50;2.05;;;5.00;99.90;;;;;;5060640;28;20044;-90
2022/12/01 00:15:16;;;;;;;2.85;1.75;;;5.00;99.90;;;;;;5044537;28;20086;-89
2022/12/01 00:18:05;;;;;;;2.15;1.77;;;5.00;99.90;;;;;;5027181;28;20084;-89
2022/12/01 00:20:44;;;;;;;4.35;1.85;;;4.90;99.90;;;;;;5043893;28;20127;-90
2022/12/01 00:23:12;;;;;;;3.83;1.58;;;5.30;99.90;;;;;;5029064;28;20049;-90
2022/12/01 00:25:47;;;;;;;4.10;1.40;;;4.40;99.90;;;;;;5060223;28;20487;-90
2022/12/01 00:28:33;;;;;;;4.78;1.77;;;4.90;99.90;;;;;;5060809;28;20040;-90
2022/12/01 00:31:01;;;;;;;4.45;1.75;;;5.00;99.90;;;;;;5043528;28;20048;-89
2022/12/01 00:33:32;;;;;;;2.28;0.85;;;4.90;99.90;;;;;;5043881;28;20048;-89
2022/12/01 00:36:01;;;;;;;2.55;1.58;;;4.90;99.90;;;;;;5044170;28;20071;-89
2022/12/01 00:38:36;;;;;;;3.83;1.92;;;4.90;99.90;;;;;;5043583;28;20048;-90
2022/12/01 00:41:14;;;;;;;4.90;1.33;;;6.30;99.90;;;;;;5043700;28;20084;-90
2022/12/01 00:44:10;;;;;;;;;;;;;;;;;;;;;
2022/12/01 00:46:48;;;;;;;;;;;;;;;;;;;;;
2022/12/01 00:49:17;;;;;;;4.38;1.38;;;5.00;99.90;;;;;;5057104;28;20127;-89
2022/12/01 00:52:07;;;;;;;2.13;0.87;;;5.00;99.90;;;;;;5056281;28;20123;-89
2022/12/01 00:54:40;;;;;;;1.58;0.85;;;5.20;99.90;;;;;;5056791;28;20084;-89
2022/12/01 00:57:26;;;;;;;2.83;1.05;;;4.90;99.90;;;;;;5024087;28;20418;-90
2022/12/01 00:59:51;;;;;;;2.88;0.90;;;4.90;99.90;;;;;;5039880;28;20115;-89
2022/12/01 01:02:22;;;;;;;2.33;1.30;;;4.90;99.90;;;;;;5039893;28;20326;-89
2022/12/01 01:04:48;;;;;;;3.08;0.98;;;4.90;99.90;;;;;;5040380;28;20044;-89
2022/12/01 01:07:17;;;;;;;1.77;1.00;;;4.90;99.90;;;;;;5040090;28;20459;-89
2022/12/01 01:09:54;;;;;;;2.90;1.58;;;5.10;99.90;;;;;;5056956;28;20059;-90
2022/12/01 01:12:32;;;;;;;;;;;;;;;;;;;;;
2022/12/01 01:15:11;;;;;;;;;;;;;;;;;;;;;
2022/12/01 01:17:47;;;;;;;;;;;;;;;;;;;;;
2022/12/01 01:20:15;;;;;;;1.77;1.02;;;5.00;99.90;;;;;;5057040;28;20056;-90
2022/12/01 01:22:41;;;;;;;4.97;1.67;;;4.90;99.90;;;;;;5040122;28;20040;-89
2022/12/01 01:25:18;;;;;;;1.20;1.03;;;6.20;99.90;;;;;;5023161;28;20537;-90
2022/12/01 01:27:47;;;;;;;0.63;0.63;;;5.00;99.90;;;;;;5039637;28;20588;-90
2022/12/01 01:30:18;;;;;;;3.97;1.15;;;4.90;99.90;;;;;;5040114;28;20111;-89
2022/12/01 01:33:06;;;;;;;5.63;1.52;;;4.90;99.90;;;;;;5039394;28;20040;-90
2022/12/01 01:35:43;;;;;;;3.65;1.92;;;5.10;99.90;;;;;;5023657;28;20040;-89
2022/12/01 01:38:12;;;;;;;5.97;1.70;;;4.90;99.90;;;;;;5039792;28;20106;-90
2022/12/01 01:40:46;;;;;;;4.60;1.58;;;5.70;99.90;;;;;;5039892;28;20040;-89
2022/12/01 01:43:39;;;;;;;2.40;1.40;;;5.00;99.90;;;;;;5039747;28;20048;-89
2022/12/01 01:46:15;;;;;;;2.80;1.88;;;4.90;99.90;;;;;;5038951;28;20044;-89
2022/12/01 01:48:46;;;;;;;5.00;1.98;;;4.90;99.90;;;;;;5039930;28;20059;-89
2022/12/01 01:51:18;;;;;;;4.72;1.13;;;4.80;99.90;;;;;;5056526;28;20052;-89
2022/12/01 01:53:50;;;;;;;2.92;1.95;;;6.20;99.90;;;;;;5039922;28;20442;-89
2022/12/01 01:56:18;;;;;;;2.17;1.25;;;4.80;99.90;;;;;;5039000;28;20483;-89
2022/12/01 01:58:56;;;;;;;;;;;;;;;;;;;;;
2022/12/01 02:01:40;;;;;;;2.78;1.10;;;4.90;99.90;;;;;;5040531;28;20049;-89
2022/12/01 02:04:14;;;;;;;4.25;1.48;;;4.80;99.90;;;;;;5022441;28;20044;-89
2022/12/01 02:06:50;;;;;;;2.92;1.55;;;4.80;99.90;;;;;;5056146;28;20044;-89
2022/12/01 02:09:32;;;;;;;;;;;;;;;;;;;;;
2022/12/01 02:12:28;;;;;;;4.13;1.63;;;5.00;99.90;;;;;;5055291;28;20050;-89
2022/12/01 02:15:08;;;;;;;3.05;1.08;;;4.90;99.90;;;;;;5038706;28;20091;-90
2022/12/01 02:18:12;;;;;;;1.75;0.73;;;4.90;99.90;;;;;;5039278;28;20044;-89
2022/12/01 02:20:51;;;;;;;5.13;2.05;;;4.40;99.90;;;;;;5019455;28;20056;-89
2022/12/01 02:23:51;;;;;;;2.78;1.55;;;6.20;99.90;;;;;;5055721;28;20063;-89
2022/12/01 02:27:01;;;;;;;3.67;1.38;;;4.10;99.90;;;;;;5039306;28;20058;-89
2022/12/01 02:29:29;;;;;;;3.30;1.77;;;4.80;99.90;;;;;;5055054;28;20051;-89
2022/12/01 02:32:14;;;;;;;5.63;1.83;;;4.80;99.90;;;;;;5055311;28;20044;-89
2022/12/01 02:34:52;;;;;;;3.35;1.48;;;4.90;99.90;;;;;;5038306;28;20052;-88
2022/12/01 02:37:54;;;;;;;2.60;1.98;;;4.80;99.90;;;;;;5039044;28;20045;-89
2022/12/01 02:40:31;;;;;;;2.17;1.52;;;4.90;99.90;;;;;;5038318;28;20566;-89
2022/12/01 02:43:19;;;;;;;1.02;0.95;;;5.00;99.90;;;;;;5055245;28;20163;-89
2022/12/01 02:46:04;;;;;;;5.13;1.90;;;4.90;99.90;;;;;;5038155;28;20052;-89
2022/12/01 02:48:37;;;;;;;3.35;1.10;;;5.20;99.90;;;;;;5038187;28;20102;-89
2022/12/01 02:51:35;;;;;;;5.32;1.73;;;5.40;99.90;;;;;;5054672;28;20048;-89
2022/12/01 02:54:02;;;;;;;4.57;1.48;;;4.90;99.90;;;;;;5054423;28;20056;-89
2022/12/01 02:56:29;;;;;;;4.07;1.98;;;4.80;99.90;;;;;;5021742;28;20063;-89
2022/12/01 02:58:58;;;;;;;2.60;2.03;;;5.00;99.90;;;;;;5037569;28;20052;-89
2022/12/01 03:01:51;;;;;;;2.63;1.40;;;4.50;99.90;;;;;;5038244;28;20135;-89
2022/12/01 03:04:40;;;;;;;3.72;1.52;;;4.80;99.90;;;;;;5037802;28;20506;-89
2022/12/01 03:07:22;;;;;;;4.78;1.70;;;4.80;99.90;;;;;;5054757;28;20090;-89
2022/12/01 03:10:16;;;;;;;2.42;0.88;;;4.90;99.90;;;;;;5054136;28;20495;-89
2022/12/01 03:13:48;;;;;;;5.75;1.27;;;4.90;99.90;;;;;;5038008;28;20044;-89
2022/12/01 03:16:37;;;;;;;4.93;1.38;;;4.60;99.90;;;;;;4998662;28;20097;-89
2022/12/01 03:19:12;;;;;;;3.33;1.67;;;5.80;99.90;;;;;;5013361;28;20055;-89
2022/12/01 03:22:02;;;;;;;4.65;1.63;;;4.80;99.90;;;;;;5033055;28;20048;-89
2022/12/01 03:24:40;;;;;;;1.95;1.10;;;4.70;99.90;;;;;;5054702;28;20589;-89
2022/12/01 03:27:09;;;;;;;1.85;0.90;;;5.90;99.90;;;;;;5037771;28;20052;-89
2022/12/01 03:29:49;;;;;;;6.60;2.38;;;4.90;99.90;;;;;;5037937;28;20044;-89
2022/12/01 03:32:46;;;;;;;5.03;2.28;;;4.80;99.90;;;;;;5054379;28;20040;-89
2022/12/01 03:35:31;;;;;;;3.67;1.17;;;4.80;99.90;;;;;;5032733;28;20061;-89
2022/12/01 03:38:29;;;;;;;4.35;1.95;;;4.80;99.90;;;;;;5037829;28;20060;-89
2022/12/01 03:41:04;;;;;;;1.27;1.17;;;4.80;99.90;;;;;;5029997;28;20545;-89
2022/12/01 03:43:44;;;;;;;1.40;0.82;;;4.80;99.90;;;;;;5038100;28;20053;-89
2022/12/01 03:46:30;;;;;;;3.83;1.60;;;4.80;99.90;;;;;;5037672;28;20087;-89
2022/12/01 03:49:08;;;;;;;4.22;1.45;;;3.80;99.90;;;;;;5038004;28;20417;-89
2022/12/01 03:52:05;;;;;;;4.93;1.10;;;4.60;99.90;;;;;;5054260;28;20114;-89
2022/12/01 03:54:50;;;;;;;;;;;;;;;;;;;;;
2022/12/01 03:57:50;;;;;;;2.03;1.17;;;4.80;99.90;;;;;;5053601;28;20065;-89
2022/12/01 04:00:22;;;;;;;3.35;0.95;;;4.80;99.90;;;;;;5037501;28;20388;-89
2022/12/01 04:03:02;;;;;;;4.47;1.75;;;4.70;99.90;;;;;;5054496;28;20158;-89
2022/12/01 04:05:32;;;;;;;1.50;1.00;;;5.10;99.90;;;;;;5037130;28;20107;-89
2022/12/01 04:08:03;;;;;;;3.42;1.35;;;5.10;99.90;;;;;;5054289;28;20051;-89
2022/12/01 04:10:32;;;;;;;1.85;1.67;;;4.70;99.90;;;;;;5037636;28;20055;-89
2022/12/01 04:13:10;;;;;;;4.18;2.35;;;4.80;99.90;;;;;;5037701;28;20050;-89
2022/12/01 04:15:38;;;;;;;7.25;1.55;;;5.10;99.90;;;;;;5054188;28;20388;-90
2022/12/01 04:18:09;;;;;;;5.20;1.25;;;4.80;99.90;;;;;;5037206;28;20395;-89
2022/12/01 04:20:48;;;;;;;;;;;;;;;;;;;;;
2022/12/01 04:23:58;;;;;;;5.80;1.63;;;4.30;99.90;;;;;;5041607;28;20060;-89
2022/12/01 04:26:03;;;;;;;2.92;1.23;;;6.10;99.90;;;;;;5057306;28;20048;-89
2022/12/01 04:28:50;;;;;;;;;;;;;;;;;;;;;
2022/12/01 04:31:18;;;;;;;3.97;1.42;;;4.80;99.90;;;;;;5028033;28;20049;-89
2022/12/01 04:33:50;;;;;;;7.65;1.67;;;5.90;99.90;;;;;;5025544;28;20056;-89
2022/12/01 04:36:30;;;;;;;2.33;1.40;;;5.20;99.90;;;;;;5040841;28;20080;-89
2022/12/01 04:39:05;;;;;;;2.28;1.70;;;5.20;99.90;;;;;;5041089;28;20044;-89
2022/12/01 04:41:41;;;;;;;2.15;1.33;;;4.80;99.90;;;;;;5040833;28;20036;-89
2022/12/01 04:44:12;;;;;;;3.47;1.65;;;5.80;99.90;;;;;;5040738;28;20052;-89
2022/12/01 04:46:40;;;;;;;3.20;1.17;;;4.80;99.90;;;;;;5057267;28;20036;-89
2022/12/01 04:49:32;;;;;;;5.00;1.33;;;4.80;99.90;;;;;;5057081;28;20040;-89
2022/12/01 04:52:00;;;;;;;2.17;1.20;;;5.60;99.90;;;;;;5040638;28;20044;-89
2022/12/01 04:54:32;;;;;;;1.83;0.93;;;5.20;99.90;;;;;;5040050;28;20044;-89
2022/12/01 04:57:09;;;;;;;3.17;1.23;;;4.70;99.90;;;;;;5057738;28;20529;-89
2022/12/01 04:59:57;;;;;;;4.43;2.28;;;4.80;99.90;;;;;;5041029;28;20058;-89
2022/12/01 05:02:26;;;;;;;4.97;1.70;;;6.00;99.90;;;;;;5056858;28;20553;-89
2022/12/01 05:05:01;;;;;;;5.00;1.40;;;4.80;99.90;;;;;;5024018;28;20044;-89
2022/12/01 05:07:43;;;;;;;2.25;1.58;;;3.80;99.90;;;;;;5024018;28;20060;-89
2022/12/01 05:10:17;;;;;;;2.50;1.00;;;4.90;99.90;;;;;;5040685;28;20063;-89
2022/12/01 05:13:01;;;;;;;;;;;;;;;;;;;;;
2022/12/01 05:15:36;;;;;;;2.53;1.55;;;4.80;99.90;;;;;;5056972;28;20068;-89
2022/12/01 05:18:06;;;;;;;4.70;1.73;;;5.80;99.90;;;;;;5040488;28;20059;-89
2022/12/01 05:23:18;;;;;;;3.25;0.88;;;4.80;99.90;;;;;;5056660;28;20036;-89
2022/12/01 05:25:49;;;;;;;4.40;1.90;;;3.90;99.90;;;;;;5023606;28;20376;-89
2022/12/01 05:28:45;;;;;;;;;;;;;;;;;;;;;
2022/12/01 05:31:15;;;;;;;1.08;1.05;;;4.80;99.90;;;;;;5056623;28;20049;-88
2022/12/01 05:33:43;;;;;;;3.78;1.70;;;4.70;99.90;;;;;;5039741;28;20111;-89
2022/12/01 05:36:12;;;;;;;3.58;1.88;;;4.80;99.90;;;;;;5024411;28;20048;-89
2022/12/01 05:38:55;;;;;;;1.57;1.43;;;4.80;99.90;;;;;;5039927;28;20041;-90
2022/12/01 05:41:29;;;;;;;5.93;2.38;;;4.70;99.90;;;;;;5039382;28;20041;-90
2022/12/01 05:44:03;;;;;;;3.60;1.40;;;4.90;99.90;;;;;;5040404;28;20098;-89
2022/12/01 05:46:34;;;;;;;3.67;1.52;;;4.60;99.90;;;;;;5023677;28;20047;-89
2022/12/01 05:49:05;;;;;;;3.03;1.73;;;4.80;99.90;;;;;;5023412;28;20052;-89
2022/12/01 05:51:36;;;;;;;5.13;1.80;;;4.70;99.90;;;;;;5039123;28;20049;-89
2022/12/01 05:54:05;;;;;;;4.65;2.20;;;4.70;99.90;;;;;;5056427;28;20055;-89
2022/12/01 05:56:34;;;;;;;4.32;1.83;;;3.70;99.90;;;;;;5038979;28;20061;-89
2022/12/01 05:59:02;;;;;;;1.95;1.55;;;3.70;99.90;;;;;;5039218;28;20040;-89
2022/12/01 06:01:40;;;;;;;1.30;1.13;;;5.60;99.90;;;;;;5039186;28;20084;-89
2022/12/01 06:04:12;;;;;;;4.80;1.30;;;4.80;99.90;;;;;;5023142;28;20048;-88
2022/12/01 06:06:38;;;;;;;8.02;1.98;;;4.80;99.90;;;;;;5039425;28;20113;-89
2022/12/01 06:09:14;;;;;;;1.90;1.67;;;4.80;99.90;;;;;;5056145;28;20124;-89
2022/12/01 06:11:42;;;;;;;4.55;1.42;;;6.10;99.90;;;;;;5039666;28;20048;-89
2022/12/01 06:14:10;;;;;;;4.25;1.92;;;4.70;99.90;;;;;;5039221;28;20044;-90
2022/12/01 06:17:05;;;;;;;1.77;1.58;;;5.20;99.90;;;;;;5038892;28;20053;-89
2022/12/01 06:19:36;;;;;;;7.15;2.22;;;4.80;99.90;;;;;;5028591;28;20051;-89
2022/12/01 06:22:04;;;;;;;3.45;1.60;;;4.80;99.90;;;;;;5039455;28;20390;-89
2022/12/01 06:24:33;;;;;;;1.75;1.27;;;5.30;99.90;;;;;;5054136;28;20498;-90
2022/12/01 06:27:11;;;;;;;3.08;1.33;;;4.70;99.90;;;;;;5038902;28;20048;-89
2022/12/01 06:29:40;;;;;;;11.38;2.47;;;4.80;99.90;;;;;;5038620;28;20060;-89
2022/12/01 06:32:08;;;;;;;1.25;0.93;;;4.70;99.90;;;;;;5055524;28;20048;-89
2022/12/01 06:34:34;;;;;;;2.75;1.75;;;4.70;99.90;;;;;;5038517;28;20049;-89
2022/12/01 06:37:17;;;;;;;1.90;0.93;;;3.70;99.90;;;;;;5055414;28;20044;-89
2022/12/01 06:39:48;;;;;;;2.65;0.88;;;4.80;99.90;;;;;;5022456;28;20141;-89
2022/12/01 06:42:22;;;;;;;2.15;1.35;;;4.70;99.90;;;;;;5022585;28;20044;-89
2022/12/01 06:45:13;;;;;;;3.88;1.35;;;4.80;99.90;;;;;;5038267;28;20194;-89
2022/12/01 06:47:42;;;;;;;2.70;1.58;;;4.00;99.90;;;;;;5038597;28;20048;-90
2022/12/01 06:50:31;;;;;;;6.88;2.38;;;4.70;99.90;;;;;;5042444;28;20394;-92
2022/12/01 06:52:56;;;;;;;2.95;1.08;;;6.00;99.90;;;;;;5055767;28;20044;-90
2022/12/01 06:55:25;;;;;;;4.50;1.87;;;6.00;99.90;;;;;;5056005;28;20095;-90
2022/12/01 06:57:59;;;;;;;3.13;1.55;;;4.80;99.90;;;;;;5038366;28;20674;-89
2022/12/01 07:00:26;;;;;;;3.88;2.13;;;5.00;99.90;;;;;;5038654;28;20045;-90
2022/12/01 07:02:52;;;;;;;3.90;1.08;;;4.80;99.90;;;;;;5037568;28;20067;-91
2022/12/01 07:05:35;;;;;;;2.53;0.90;;;5.00;99.90;;;;;;5021482;28;20398;-91
2022/12/01 07:08:35;;;;;;;2.25;1.55;;;4.70;99.90;;;;;;5039311;28;20048;-90
2022/12/01 07:11:13;;;;;;;1.75;1.30;;;4.80;99.90;;;;;;5031943;28;20134;-90
2022/12/01 07:13:44;;;;;;;2.20;1.42;;;4.80;99.90;;;;;;5039385;28;20044;-90
2022/12/01 07:16:22;;;;;;;3.28;2.08;;;3.80;99.90;;;;;;5057326;28;20113;-95
2022/12/01 07:18:52;;;;;;;3.10;1.33;;;4.40;99.90;;;;;;5074900;28;20048;-95
2022/12/01 07:21:28;;;;;;;6.55;2.70;;;5.90;99.90;;;;;;5026314;28;20435;-95
2022/12/01 07:24:01;;;;;;;5.47;1.92;;;4.70;99.90;;;;;;5041300;28;20140;-95
2022/12/01 07:26:39;;;;;;;;;;;;;;;;;;;;;
2022/12/01 07:32:12;;;;;;;2.65;1.63;;;4.80;99.90;;;;;;5022755;28;20049;-94
2022/12/01 07:35:11;;;;;;;;;;;;;;;;;;;;;
2022/12/01 07:38:09;;;;;;;4.28;1.33;;;3.90;99.90;;;;;;5005536;28;20447;-92
2022/12/01 07:54:57;;;;;;;;;;;;;;;;;;;;;
2022/12/01 07:57:59;;;;;;;5.03;1.58;;;4.80;99.90;;;;;;4912197;29;20497;-94
2022/12/01 08:01:13;;;;;;;;;;;;;;;;;;;;;
2022/12/01 08:04:09;;;;;;;3.20;1.13;;;4.80;99.90;;;;;;4933960;29;20043;-94
2022/12/01 08:06:46;;;;;;;2.40;1.15;;;5.30;99.90;;;;;;4968856;28;20046;-91
2022/12/01 08:09:32;;;;;;;3.88;1.50;;;4.80;99.90;;;;;;4980145;28;20045;-93
2022/12/01 08:12:10;;;;;;;4.63;1.65;;;4.00;99.90;;;;;;4997209;28;20121;-85
2022/12/01 08:17:50;;;;;;;3.60;1.02;;;4.90;99.90;;;;;;5009420;28;20057;-93
2022/12/01 08:20:57;;;;;;;;;;;;;;;;;;;;;
2022/12/01 08:23:41;;;;;;;4.22;1.73;;;4.00;99.90;;;;;;5006364;28;20057;-89
2022/12/01 08:31:26;;;;;;;;;;;;;;;;;;;;;
2022/12/01 09:12:40;;;;;;;;;;;;;;;;;;;;;
2022/12/01 09:15:21;;;;;;;2.92;1.77;;;5.00;99.90;;;;;;6200140;23;20040;-93
2022/12/01 09:17:54;;;;;;;1.63;0.63;;;5.10;99.90;;;;;;6204788;23;20059;-96
2022/12/01 09:20:34;;;;;;;2.70;1.17;;;5.10;99.90;;;;;;6155583;23;20095;-88
2022/12/01 09:23:05;;;;;;;;;;;5.50;99.90;;;;;;6227320;23;20082;-91
2022/12/01 09:25:46;;;;;;;1.58;1.10;;;5.10;99.90;;;;;;6182530;23;19915;-93
2022/12/01 09:28:43;;;;;;;1.17;1.05;;;5.00;99.90;;;;;;6205719;23;20154;-91
2022/12/01 09:34:54;;;;;;;5.22;1.20;;;4.60;99.90;;;;;;6200264;23;20444;-90
2022/12/01 09:37:30;;;;;;;1.15;0.77;;;5.20;99.90;;;;;;6179665;23;20389;-93
2022/12/01 09:40:02;;;;;;;3.63;1.60;;;5.10;99.90;;;;;;6201045;23;20051;-88
2022/12/01 09:42:40;;;;;;;2.90;0.65;;;5.10;99.90;;;;;;6202582;23;20012;-89
2022/12/01 09:45:32;;;;;;;4.43;2.20;;;5.20;99.90;;;;;;6201309;23;20336;-88
2022/12/01 09:48:29;;;;;;;3.88;1.50;;;5.10;99.90;;;;;;6226044;23;20027;-91
2022/12/01 09:51:38;;;;;;;2.05;0.80;;;4.70;99.90;;;;;;6201203;23;20070;-88
2022/12/01 09:54:13;;;;;;;4.97;1.98;;;5.20;99.90;;;;;;6174045;23;20020;-88
2022/12/01 09:57:05;;;;;;;;;;;;;;;;;;;;;
2022/12/01 09:59:41;;;;;;;1.80;1.60;;;5.10;99.90;;;;;;6225768;23;20016;-88
2022/12/01 10:02:40;;;;;;;4.57;1.05;;;5.10;99.90;;;;;;6251274;23;20254;-88
2022/12/01 10:05:17;;;;;;;;;;;5.10;99.90;;;;;;6225916;23;20035;-89
2022/12/01 10:08:04;;;;;;;1.67;1.13;;;4.40;99.90;;;;;;6195319;23;20320;-87
2022/12/01 10:11:05;;;;;;;;;;;;;;;;;;;;;
2022/12/01 10:13:44;;;;;;;3.35;1.00;;;5.10;99.90;;;;;;6227298;22;20056;-90
2022/12/01 10:16:22;;;;;;;3.78;1.77;;;5.20;99.90;;;;;;6171284;23;20099;-90
2022/12/01 10:19:34;;;;;;;2.28;1.60;;;5.20;99.90;;;;;;6194013;23;20051;-89
2022/12/01 10:22:12;;;;;;;2.67;1.20;;;5.20;99.90;;;;;;6195850;23;20035;-90
2022/12/01 10:24:54;;;;;;;1.77;1.08;;;5.30;99.90;;;;;;6194068;23;20012;-90
2022/12/01 10:27:40;;;;;;;1.02;1.00;;;6.00;99.90;;;;;;6194174;23;20095;-89
2022/12/01 10:30:15;;;;;;;2.08;1.52;;;5.40;99.90;;;;;;6193170;23;20052;-89
2022/12/01 10:33:22;;;;;;;3.20;1.73;;;5.50;99.90;;;;;;6222265;23;20030;-94
2022/12/01 10:35:58;;;;;;;6.70;1.10;;;5.50;99.90;;;;;;6046125;23;20057;-88
2022/12/01 10:38:36;;;;;;;5.20;1.40;;;6.80;99.90;;;;;;6073481;23;20074;-87
2022/12/01 10:41:16;;;;;;;4.90;1.85;;;5.60;99.90;;;;;;6218762;23;20471;-87
2022/12/01 10:43:58;;;;;;;1.88;1.17;;;5.20;99.90;;;;;;6194768;23;20016;-88
2022/12/01 10:46:49;;;;;;;5.45;2.05;;;5.40;99.90;;;;;;6193848;23;20050;-87
2022/12/01 10:49:19;;;;;;;1.75;1.25;;;5.70;99.90;;;;;;6194770;23;20020;-95
2022/12/01 10:51:59;;;;;;;2.03;1.42;;;6.50;99.90;;;;;;6196203;23;20016;-90
2022/12/01 10:55:01;;;;;;;;;;;;;;;;;;;;;
2022/12/01 10:57:42;;;;;;;;;;;;;;;;;;;;;
2022/12/01 11:00:23;;;;;;;1.88;1.15;;;5.80;99.90;;;;;;6218033;23;20013;-88
2022/12/01 11:02:49;;;;;;;2.80;1.27;;;5.80;99.90;;;;;;6217065;23;20012;-87
2022/12/01 11:05:25;;;;;;;4.45;1.42;;;5.80;99.90;;;;;;6166813;23;20029;-87
2022/12/01 11:07:53;;;;;;;3.55;1.02;;;5.80;99.90;;;;;;6192052;23;20020;-87
2022/12/01 11:10:28;;;;;;;2.03;1.52;;;5.80;99.90;;;;;;6218350;23;20048;-90
2022/12/01 11:13:27;;;;;;;1.35;1.23;;;5.80;99.90;;;;;;6196532;23;20016;-85
2022/12/01 11:15:59;;;;;;;5.40;2.33;;;5.90;99.90;;;;;;6189850;23;20476;-89
2022/12/01 11:18:32;;;;;;;4.78;1.20;;;6.00;99.90;;;;;;6208651;23;20055;-88
2022/12/01 11:21:25;;;;;;;6.28;1.33;;;5.90;99.90;;;;;;6191935;23;20441;-92
2022/12/01 11:23:54;;;;;;;9.32;1.80;;;6.00;99.90;;;;;;6219463;23;20016;-88
2022/12/01 11:26:33;;;;;;;4.28;1.70;;;6.90;99.90;;;;;;6218631;23;20016;-87
2022/12/01 11:29:08;;;;;;;2.25;2.05;;;6.10;99.90;;;;;;6218245;23;20016;-88
2022/12/01 11:31:46;;;;;;;5.57;1.55;;;6.10;99.90;;;;;;6217947;23;20453;-88
2022/12/01 11:34:26;;;;;;;3.53;1.25;;;6.10;99.90;;;;;;6217778;23;20018;-91
2022/12/01 11:36:59;;;;;;;2.67;1.42;;;6.10;99.90;;;;;;6194231;23;20469;-90
2022/12/01 11:39:32;;;;;;;3.72;1.75;;;6.10;99.90;;;;;;6193988;23;20024;-90
2022/12/01 11:42:27;;;;;;;4.22;1.70;;;6.10;99.90;;;;;;6194100;23;20027;-91
2022/12/01 11:45:04;;;;;;;3.50;1.10;;;6.10;99.90;;;;;;6194249;23;20023;-91
2022/12/01 11:47:30;;;;;;;3.85;1.73;;;6.10;99.90;;;;;;6193380;23;20016;-90
2022/12/01 11:50:02;;;;;;;4.13;2.57;;;6.10;99.90;;;;;;6169848;23;20018;-90
2022/12/01 11:52:35;;;;;;;3.42;1.33;;;6.70;99.90;;;;;;6218410;23;20023;-90
2022/12/01 11:55:09;;;;;;;2.10;1.13;;;6.10;99.90;;;;;;6194493;23;20013;-90
2022/12/01 11:57:36;;;;;;;3.83;1.95;;;6.20;99.90;;;;;;6193552;23;20453;-90
2022/12/01 12:00:15;;;;;;;3.40;1.55;;;6.20;99.90;;;;;;6169385;23;20079;-90
2022/12/01 12:03:02;;;;;;;3.25;1.67;;;6.20;99.90;;;;;;6193674;23;20020;-90
2022/12/01 12:05:47;;;;;;;5.68;2.22;;;6.20;99.90;;;;;;6193431;23;20410;-90
2022/12/01 12:08:35;;;;;;;2.35;1.42;;;6.20;99.90;;;;;;6218446;23;20035;-90
2022/12/01 12:11:26;;;;;;;3.45;1.73;;;6.20;99.90;;;;;;6194371;23;20445;-91
2022/12/01 12:14:28;;;;;;;2.00;1.88;;;6.10;99.90;;;;;;6217346;23;20020;-90
2022/12/01 12:16:59;;;;;;;6.75;1.60;;;6.10;99.90;;;;;;6202805;23;20019;-90
2022/12/01 12:19:37;;;;;;;2.60;1.58;;;6.10;99.90;;;;;;6218206;23;20115;-90
2022/12/01 12:22:03;;;;;;;3.42;1.13;;;6.10;99.90;;;;;;6218383;23;20023;-90
2022/12/01 12:24:52;;;;;;;4.40;1.40;;;6.30;99.90;;;;;;6218783;23;20012;-90
2022/12/01 12:27:43;;;;;;;1.58;0.82;;;6.10;99.90;;;;;;6193794;23;20103;-89
2022/12/01 12:30:26;;;;;;;1.95;1.33;;;6.10;99.90;;;;;;6193989;23;20027;-91
2022/12/01 12:32:55;;;;;;;2.03;1.67;;;6.70;99.90;;;;;;6194789;23;20023;-90
2022/12/01 12:35:27;;;;;;;1.45;0.90;;;6.60;99.90;;;;;;6192562;23;20099;-90
2022/12/01 12:38:19;;;;;;;3.33;1.48;;;6.10;99.90;;;;;;6218886;23;20047;-90
2022/12/01 12:41:20;;;;;;;1.63;1.50;;;6.10;99.90;;;;;;6218863;23;20091;-90
2022/12/01 12:44:19;;;;;;;4.45;1.67;;;6.10;99.90;;;;;;6212304;23;20078;-90
2022/12/01 12:47:01;;;;;;;2.38;1.45;;;6.10;99.90;;;;;;6194728;23;20341;-90
2022/12/01 12:49:52;;;;;;;5.18;2.08;;;6.40;99.90;;;;;;6193457;23;20047;-90
2022/12/01 12:52:39;;;;;;;3.90;1.08;;;6.00;99.90;;;;;;6218429;23;20455;-90
2022/12/01 12:55:11;;;;;;;2.17;1.30;;;6.10;99.90;;;;;;6192442;23;20012;-90
2022/12/01 12:57:45;;;;;;;3.42;1.63;;;6.00;99.90;;;;;;6193426;23;20074;-90
2022/12/01 13:00:21;;;;;;;2.03;1.17;;;6.00;99.90;;;;;;6193936;23;20062;-90
2022/12/01 13:03:03;;;;;;;3.30;1.65;;;6.00;99.90;;;;;;6218370;23;20016;-89
2022/12/01 13:05:35;;;;;;;2.05;1.50;;;5.90;99.90;;;;;;6217515;23;20445;-90
2022/12/01 13:08:10;;;;;;;6.80;2.65;;;6.00;99.90;;;;;;6193614;23;20027;-89
2022/12/01 13:10:46;;;;;;;4.80;1.23;;;5.90;99.90;;;;;;6217791;23;20437;-90
2022/12/01 13:13:28;;;;;;;5.35;1.83;;;6.20;99.90;;;;;;6218464;23;20066;-90
2022/12/01 13:15:56;;;;;;;4.03;1.15;;;5.90;99.90;;;;;;6218386;23;20016;-90
2022/12/01 13:18:34;;;;;;;4.15;1.90;;;5.90;99.90;;;;;;6218408;23;20016;-90
2022/12/01 13:21:02;;;;;;;3.75;1.48;;;5.90;99.90;;;;;;6217897;23;20440;-90
2022/12/01 13:23:29;;;;;;;3.70;1.88;;;5.90;99.90;;;;;;6192586;23;20024;-89
2022/12/01 13:25:59;;;;;;;2.03;1.23;;;5.90;99.90;;;;;;6169287;23;20145;-90
2022/12/01 13:28:36;;;;;;;2.92;1.38;;;5.90;99.90;;;;;;6217371;23;20027;-88
2022/12/01 13:31:11;;;;;;;1.73;0.60;;;6.50;99.90;;;;;;6217585;23;20453;-89
2022/12/01 13:34:01;;;;;;;3.53;1.33;;;5.90;99.90;;;;;;6219889;23;20012;-96
2022/12/01 13:36:28;;;;;;;1.30;0.80;;;5.80;99.90;;;;;;6192455;23;20012;-88
2022/12/01 13:38:54;;;;;;;;;;;5.80;99.90;;;;;;6217448;23;20023;-87
2022/12/01 13:41:31;;;;;;;4.82;1.67;;;6.60;99.90;;;;;;6193282;23;20308;-88
2022/12/01 13:44:02;;;;;;;1.75;0.80;;;5.80;99.90;;;;;;6193707;23;20095;-86
2022/12/01 13:46:35;;;;;;;2.28;1.50;;;6.30;99.90;;;;;;6193121;23;20095;-88
2022/12/01 13:49:24;;;;;;;3.15;1.92;;;5.80;99.90;;;;;;6194022;23;20042;-87
2022/12/01 13:52:35;;;;;;;2.63;1.40;;;4.70;99.90;;;;;;6172597;23;20027;-87
2022/12/01 13:55:07;;;;;;;3.83;1.30;;;5.70;99.90;;;;;;6184277;23;20030;-89
2022/12/01 13:57:57;;;;;;;4.60;2.25;;;5.80;99.90;;;;;;6193892;23;20024;-87
2022/12/01 14:00:42;;;;;;;1.92;1.15;;;5.70;99.90;;;;;;6219304;23;20023;-87
2022/12/01 14:03:19;;;;;;;4.93;2.03;;;5.70;99.90;;;;;;6195454;23;20027;-87
2022/12/01 14:06:08;;;;;;;3.00;2.42;;;5.70;99.90;;;;;;6193418;23;20020;-88
2022/12/01 14:08:45;;;;;;;3.03;1.30;;;5.70;99.90;;;;;;6193617;23;20017;-87
2022/12/01 14:11:23;;;;;;;2.97;1.67;;;5.70;99.90;;;;;;6193819;23;20020;-87
2022/12/01 14:13:51;;;;;;;2.80;1.00;;;5.70;99.90;;;;;;6224540;22;20059;-87
2022/12/01 14:16:17;;;;;;;3.95;1.85;;;6.70;99.90;;;;;;6218378;23;20023;-87
2022/12/01 14:18:56;;;;;;;2.23;1.17;;;5.60;99.90;;;;;;6193722;23;20008;-87
2022/12/01 14:21:45;;;;;;;5.43;2.97;;;5.60;99.90;;;;;;6192122;23;20020;-87
2022/12/01 14:24:32;;;;;;;3.38;1.50;;;5.60;99.90;;;;;;6218402;23;20022;-86
2022/12/01 14:26:58;;;;;;;2.33;1.10;;;6.20;99.90;;;;;;6217725;23;20098;-87
2022/12/01 14:29:41;;;;;;;2.70;1.38;;;6.30;99.90;;;;;;6144391;23;20024;-87
2022/12/01 14:32:16;;;;;;;3.47;1.90;;;5.20;99.90;;;;;;6218294;23;20016;-87
2022/12/01 14:34:45;;;;;;;3.47;2.00;;;6.40;99.90;;;;;;6217448;23;20023;-86
2022/12/01 14:37:15;;;;;;;3.97;2.13;;;5.50;99.90;;;;;;6218170;23;20047;-88
2022/12/01 14:39:49;;;;;;;4.60;3.47;;;5.40;99.90;;;;;;6192152;23;20024;-87
2022/12/01 14:45:18;;;;;;;4.03;1.58;;;5.40;99.90;;;;;;6217938;23;20031;-86
2022/12/01 14:47:55;;;;;;;5.53;1.85;;;5.40;99.90;;;;;;6193751;23;20016;-86
2022/12/01 14:50:29;;;;;;;4.10;1.77;;;4.60;99.90;;;;;;6216004;23;20016;-86
2022/12/01 14:53:03;;;;;;;5.75;2.00;;;5.40;99.90;;;;;;6191891;23;20022;-86
2022/12/01 14:55:42;;;;;;;2.42;1.60;;;5.40;99.90;;;;;;6193457;23;20052;-85
2022/12/01 14:58:18;;;;;;;3.47;1.33;;;5.40;99.90;;;;;;6219472;23;20387;-87
2022/12/01 15:01:11;;;;;;;4.03;1.93;;;5.40;99.90;;;;;;6192220;23;20016;-86
2022/12/01 15:04:15;;;;;;;;;;;;;;;;;;;;;
2022/12/01 15:06:57;;;;;;;3.50;1.63;;;5.40;99.90;;;;;;6218441;23;20043;-88
2022/12/01 15:10:03;;;;;;;4.78;2.08;;;5.80;99.90;;;;;;6195611;23;20024;-90
2022/12/01 15:12:37;;;;;;;5.13;1.65;;;5.20;99.90;;;;;;6170736;23;20020;-94
2022/12/01 15:15:24;;;;;;;;;;;;;;;;;;;;;
2022/12/01 15:18:01;;;;;;;3.65;1.95;;;5.20;99.90;;;;;;6214304;23;20107;-92
2022/12/01 15:20:47;;;;;;;5.50;1.77;;;5.30;99.90;;;;;;6188036;23;20077;-91
2022/12/01 15:23:41;;;;;;;;;;;;;;;;;;;;;
2022/12/01 15:26:23;;;;;;;6.40;2.72;;;6.00;99.90;;;;;;6217447;23;20052;-91
2022/12/01 15:29:04;;;;;;;6.10;2.25;;;5.10;99.90;;;;;;6191204;23;20086;-90
2022/12/01 15:31:42;;;;;;;6.18;1.83;;;4.40;99.90;;;;;;6190364;23;20026;-89
2022/12/01 15:34:32;;;;;;;3.85;2.65;;;5.10;99.90;;;;;;6218640;23;20099;-90
2022/12/01 15:37:25;;;;;;;4.60;2.42;;;6.40;99.90;;;;;;6192540;23;20008;-91
2022/12/01 15:40:25;;;;;;;4.63;1.85;;;5.10;99.90;;;;;;6193103;23;20024;-91
2022/12/01 15:43:19;;;;;;;5.25;2.08;;;5.10;99.90;;;;;;6192477;23;20083;-89
2022/12/01 15:46:18;;;;;;;3.47;2.25;;;5.00;99.90;;;;;;6217265;23;20020;-90
2022/12/01 15:49:10;;;;;;;;;;;5.00;99.90;;;;;;6184734;23;20020;-89
2022/12/01 15:51:42;;;;;;;2.75;1.88;;;5.00;99.90;;;;;;6192920;23;20434;-90